createdAt,value
2023-04-16T00:04:32.396Z,95.77
2023-04-16T00:09:34.683Z,96.21
2023-04-16T00:14:36.827Z,96.69
2023-04-16T00:19:38.971Z,97.07
2023-04-16T00:24:41.600Z,97.33
2023-04-16T00:29:43.703Z,97.55
2023-04-16T00:34:46.046Z,97.81
2023-04-16T00:39:48.225Z,97.96
2023-04-16T00:44:50.392Z,98.25
2023-04-16T00:49:52.772Z,98.40
2023-04-16T00:54:54.978Z,98.60
2023-04-16T00:59:58.240Z,98.64
2023-04-16T01:05:01.461Z,98.74
2023-04-16T01:10:04.205Z,98.85
2023-04-16T01:15:07.096Z,98.87
2023-04-16T01:20:09.609Z,98.93
2023-04-16T01:25:15.807Z,98.93
2023-04-16T01:30:18.101Z,99.02
2023-04-16T01:35:20.266Z,99.07
2023-04-16T01:40:22.683Z,99.10
2023-04-16T01:45:25.546Z,99.01
2023-04-16T01:50:28.469Z,99.02
2023-04-16T01:55:32.374Z,99.08
2023-04-16T02:00:34.616Z,99.09
2023-04-16T02:05:36.792Z,99.19
2023-04-16T02:10:39.102Z,99.35
2023-04-16T02:15:49.215Z,99.38
2023-04-16T02:20:51.350Z,99.38
2023-04-16T02:25:53.617Z,99.39
2023-04-16T02:30:55.938Z,99.66
2023-04-16T02:36:00.494Z,99.71
2023-04-16T02:41:02.955Z,99.85
2023-04-16T02:46:05.406Z,99.92
2023-04-16T02:51:07.789Z,100.00
2023-04-16T02:56:09.965Z,100.00
2023-04-16T03:01:12.179Z,100.00
2023-04-16T03:06:14.420Z,100.00
2023-04-16T03:11:16.877Z,100.00
2023-04-16T03:16:19.250Z,100.00
2023-04-16T03:21:21.497Z,100.00
2023-04-16T03:26:23.735Z,100.00
2023-04-16T03:31:26.138Z,100.00
2023-04-16T03:36:28.273Z,100.00
2023-04-16T03:41:31.070Z,100.00
2023-04-16T03:46:33.280Z,100.00
2023-04-16T03:51:35.558Z,100.00
2023-04-16T03:56:37.726Z,100.00
2023-04-16T04:01:39.909Z,100.00
2023-04-16T04:06:42.222Z,100.00
2023-04-16T04:11:44.582Z,100.00
2023-04-16T04:16:46.973Z,100.00
2023-04-16T04:21:49.190Z,100.00
2023-04-16T04:26:51.370Z,100.00
2023-04-16T04:31:55.266Z,100.00
2023-04-16T04:36:57.658Z,100.00
2023-04-16T04:41:59.891Z,99.64
2023-04-16T04:47:03.168Z,99.33
2023-04-16T04:52:06.179Z,99.26
2023-04-16T04:57:08.822Z,98.99
2023-04-16T05:02:12.275Z,98.66
2023-04-16T05:07:14.496Z,98.17
2023-04-16T05:12:16.692Z,97.73
2023-04-16T05:17:19.347Z,97.28
2023-04-16T05:22:21.662Z,96.69
2023-04-16T05:27:23.873Z,96.09
2023-04-16T05:32:26.464Z,94.81
2023-04-16T05:37:28.744Z,93.48
2023-04-16T05:42:31.143Z,92.63
2023-04-16T05:47:33.326Z,91.79
2023-04-16T05:52:35.622Z,91.15
2023-04-16T05:57:37.786Z,90.16
2023-04-16T06:02:40.435Z,88.97
2023-04-16T06:07:42.708Z,88.79
2023-04-16T06:12:47.358Z,87.84
2023-04-16T06:17:50.075Z,86.63
2023-04-16T06:22:52.323Z,85.83
2023-04-16T06:27:54.865Z,85.41
2023-04-16T06:32:57.040Z,84.59
2023-04-16T06:37:59.220Z,82.66
2023-04-16T06:43:06.732Z,80.74
2023-04-16T06:48:09.011Z,78.79
2023-04-16T06:53:11.188Z,77.24
2023-04-16T06:58:13.371Z,76.75
2023-04-16T07:03:15.906Z,76.15
2023-04-16T07:08:18.249Z,75.38
2023-04-16T07:13:20.894Z,74.46
2023-04-16T07:18:23.121Z,74.94
2023-04-16T07:23:28.078Z,73.88
2023-04-16T07:28:30.457Z,72.70
2023-04-16T07:33:33.029Z,70.96
2023-04-16T07:38:37.441Z,68.75
2023-04-16T07:43:39.711Z,66.27
2023-04-16T07:48:42.713Z,66.71
2023-04-16T07:53:47.971Z,67.46
2023-04-16T07:58:50.166Z,66.19
2023-04-16T08:03:52.458Z,61.83
2023-04-16T08:08:54.740Z,59.45
2023-04-16T08:13:57.075Z,58.79
2023-04-16T08:19:21.668Z,59.00
2023-04-16T08:24:23.858Z,57.71
2023-04-16T08:29:26.485Z,53.39
2023-04-16T08:34:29.011Z,51.26
2023-04-16T08:39:33.797Z,54.19
2023-04-16T08:44:44.293Z,52.79
2023-04-16T08:49:59.814Z,51.00
2023-04-16T08:55:12.619Z,47.64
2023-04-16T09:00:16.687Z,45.60
2023-04-16T09:05:20.810Z,45.43
2023-04-16T09:10:24.786Z,47.55
2023-04-16T09:15:26.950Z,47.12
2023-04-16T09:20:29.206Z,47.35
2023-04-16T09:25:35.089Z,49.03
2023-04-16T09:30:37.668Z,51.04
2023-04-16T09:35:46.693Z,51.75
2023-04-16T09:41:07.237Z,54.11
2023-04-16T09:46:12.886Z,55.70
2023-04-16T09:51:15.101Z,56.19
2023-04-16T09:56:17.352Z,56.75
2023-04-16T10:01:19.862Z,56.93
2023-04-16T10:06:25.712Z,56.37
2023-04-16T10:11:28.371Z,53.59
2023-04-16T10:16:31.212Z,50.51
2023-04-16T10:21:34.462Z,45.93
2023-04-16T10:26:37.214Z,44.52
2023-04-16T10:31:40.838Z,43.77
2023-04-16T10:36:43.462Z,41.14
2023-04-16T10:41:46.149Z,39.99
2023-04-16T10:46:51.507Z,38.07
2023-04-16T10:52:01.693Z,37.13
2023-04-16T10:57:06.393Z,34.42
2023-04-16T11:02:13.810Z,32.41
2023-04-16T11:07:19.058Z,31.24
2023-04-16T11:12:24.089Z,29.70
2023-04-16T11:17:30.896Z,29.67
2023-04-16T11:22:36.661Z,27.50
2023-04-16T11:27:39.037Z,25.66
2023-04-16T11:32:41.513Z,30.46
2023-04-16T11:37:44.555Z,33.44
2023-04-16T11:42:46.743Z,34.03
2023-04-16T11:47:55.464Z,31.99
2023-04-16T11:53:04.432Z,29.01
2023-04-16T11:58:16.495Z,29.73
2023-04-16T12:03:19.638Z,31.47
2023-04-16T12:08:31.796Z,29.91
2023-04-16T12:13:40.015Z,27.80
2023-04-16T12:19:03.892Z,26.56
2023-04-16T12:24:07.522Z,26.68
2023-04-16T12:29:19.698Z,29.18
2023-04-16T12:34:22.495Z,30.75
2023-04-16T12:39:45.511Z,33.06
2023-04-16T12:44:49.112Z,32.69
2023-04-16T12:49:51.257Z,34.45
2023-04-16T12:54:53.536Z,34.67
2023-04-16T12:59:58.139Z,34.22
2023-04-16T13:05:00.307Z,32.20
2023-04-16T13:10:02.875Z,31.54
2023-04-16T13:15:05.445Z,33.09
2023-04-16T13:20:08.002Z,34.03
2023-04-16T13:25:10.265Z,34.26
2023-04-16T13:30:12.838Z,35.57
2023-04-16T13:35:15.133Z,36.80
2023-04-16T13:40:17.287Z,38.07
2023-04-16T13:45:20.706Z,38.73
2023-04-16T13:50:23.381Z,39.24
2023-04-16T13:55:26.015Z,39.68
2023-04-16T14:00:28.277Z,39.52
2023-04-16T14:05:30.562Z,39.68
2023-04-16T14:10:33.221Z,39.69
2023-04-16T14:15:35.420Z,41.04
2023-04-16T14:20:39.915Z,41.55
2023-04-16T14:25:42.169Z,42.44
2023-04-16T14:30:44.384Z,42.40
2023-04-16T14:35:46.664Z,41.91
2023-04-16T14:40:49.127Z,41.57
2023-04-16T14:45:51.323Z,41.49
2023-04-16T14:50:53.813Z,40.38
2023-04-16T14:55:59.036Z,40.08
2023-04-16T15:01:01.354Z,40.04
2023-04-16T15:06:03.679Z,40.22
2023-04-16T15:11:06.061Z,39.58
2023-04-16T15:16:08.218Z,39.29
2023-04-16T15:21:12.723Z,39.08
2023-04-16T15:26:15.340Z,38.23
2023-04-16T15:31:17.847Z,36.45
2023-04-16T15:36:20.888Z,36.34
2023-04-16T15:41:23.277Z,33.17
2023-04-16T15:46:25.820Z,31.50
2023-04-16T15:51:29.471Z,34.06
2023-04-16T15:56:31.979Z,36.11
2023-04-16T16:01:34.292Z,37.91
2023-04-16T16:06:38.704Z,39.52
2023-04-16T16:11:41.719Z,40.58
2023-04-16T16:16:46.431Z,42.53
2023-04-16T16:21:48.619Z,43.88
2023-04-16T16:26:50.971Z,44.60
2023-04-16T16:31:53.220Z,45.45
2023-04-16T16:36:55.525Z,45.80
2023-04-16T16:41:58.220Z,45.65
2023-04-16T16:47:00.527Z,45.83
2023-04-16T16:52:02.895Z,45.44
2023-04-16T16:57:05.150Z,45.49
2023-04-16T17:02:07.585Z,46.19
2023-04-16T17:07:09.937Z,46.84
2023-04-16T17:12:12.105Z,47.67
2023-04-16T17:17:14.270Z,48.06
2023-04-16T17:22:16.430Z,48.51
2023-04-16T17:27:18.635Z,49.28
2023-04-16T17:32:21.133Z,50.16
2023-04-16T17:37:23.628Z,50.22
2023-04-16T17:42:25.889Z,51.22
2023-04-16T17:47:28.224Z,51.64
2023-04-16T17:52:30.639Z,52.44
2023-04-16T17:57:32.825Z,53.25
2023-04-16T18:02:35.427Z,54.42
2023-04-16T18:07:39.063Z,54.83
2023-04-16T18:12:41.287Z,55.68
2023-04-16T18:17:43.533Z,56.88
2023-04-16T18:22:46.233Z,57.86
2023-04-16T18:27:49.675Z,58.79
2023-04-16T18:33:16.425Z,59.27
2023-04-16T18:38:13.959Z,60.22
2023-04-16T18:43:16.244Z,61.29
2023-04-16T18:48:18.428Z,62.10
2023-04-16T18:53:21.340Z,62.54
2023-04-16T18:58:24.068Z,62.68
2023-04-16T19:03:28.490Z,62.64
2023-04-16T19:08:30.856Z,62.65
2023-04-16T19:13:33.205Z,62.41
2023-04-16T19:18:35.585Z,62.47
2023-04-16T19:23:37.982Z,62.64
2023-04-16T19:28:40.312Z,63.26
2023-04-16T19:33:42.425Z,63.58
2023-04-16T19:38:44.565Z,63.67
2023-04-16T19:43:46.718Z,63.56
2023-04-16T19:48:48.883Z,63.25
2023-04-16T19:53:51.846Z,63.27
2023-04-16T19:58:55.544Z,63.02
2023-04-16T20:03:57.809Z,63.23
2023-04-16T20:09:00.141Z,63.26
2023-04-16T20:14:02.342Z,62.75
2023-04-16T20:19:07.150Z,62.32
2023-04-16T20:24:10.852Z,62.37
2023-04-16T20:29:13.085Z,62.26
2023-04-16T20:34:15.390Z,62.34
2023-04-16T20:39:20.417Z,62.13
2023-04-16T20:44:40.347Z,62.44
2023-04-16T20:49:49.432Z,62.44
2023-04-16T20:54:52.424Z,62.49
2023-04-16T20:59:54.699Z,62.70
2023-04-16T21:04:56.953Z,62.72
2023-04-16T21:10:00.672Z,63.31
2023-04-16T21:15:04.210Z,63.60
2023-04-16T21:20:10.635Z,63.43
2023-04-16T21:25:12.832Z,63.41
2023-04-16T21:30:15.388Z,63.60
2023-04-16T21:35:17.647Z,63.80
2023-04-16T21:40:19.817Z,63.70
2023-04-16T21:45:21.978Z,64.22
2023-04-16T21:50:24.236Z,64.53
2023-04-16T21:55:26.408Z,65.46
2023-04-16T22:00:28.692Z,65.80
2023-04-16T22:05:31.820Z,65.94
2023-04-16T22:10:34.148Z,65.73
2023-04-16T22:15:36.336Z,65.76
2023-04-16T22:20:39.346Z,66.14
2023-04-16T22:25:41.813Z,65.86
2023-04-16T22:30:44.083Z,65.24
2023-04-16T22:35:46.430Z,65.14
2023-04-16T22:40:49.034Z,64.62
2023-04-16T22:46:01.157Z,64.53
2023-04-16T22:51:04.452Z,64.85
2023-04-16T22:56:06.998Z,64.85
2023-04-16T23:01:09.215Z,64.80
2023-04-16T23:06:11.972Z,64.92
2023-04-16T23:11:14.163Z,64.45
2023-04-16T23:16:16.389Z,64.89
2023-04-16T23:21:18.761Z,64.96
2023-04-16T23:26:20.917Z,64.74
2023-04-16T23:31:23.147Z,65.04
2023-04-16T23:36:26.421Z,65.06
2023-04-16T23:41:28.671Z,64.82
2023-04-16T23:46:31.050Z,65.04
2023-04-16T23:51:33.311Z,65.28
2023-04-16T23:56:35.643Z,65.27
